createdAt,value
2022-10-07T00:01:30.927Z,4.93
2022-10-07T00:04:16.527Z,4.15
2022-10-07T00:07:04.519Z,4.38
2022-10-07T00:09:49.738Z,4.45
2022-10-07T00:12:35.219Z,4.97
2022-10-07T00:15:20.864Z,4.72
2022-10-07T00:18:06.461Z,5.03
2022-10-07T00:20:53.233Z,4.90
2022-10-07T00:23:44.818Z,4.82
2022-10-07T00:26:32.332Z,4.68
2022-10-07T00:29:17.687Z,5.32
2022-10-07T00:32:02.990Z,4.57
2022-10-07T00:34:51.269Z,5.00
2022-10-07T00:37:42.892Z,5.20
2022-10-07T00:40:33.202Z,4.82
2022-10-07T00:43:31.303Z,6.15
2022-10-07T00:46:24.577Z,4.88
2022-10-07T00:49:16.247Z,5.85
2022-10-07T00:52:01.766Z,4.45
2022-10-07T00:54:52.989Z,4.45
2022-10-07T00:57:40.687Z,4.57
2022-10-07T01:00:26.117Z,4.70
2022-10-07T01:03:11.645Z,4.70
2022-10-07T01:05:59.675Z,4.88
2022-10-07T01:08:47.477Z,5.13
2022-10-07T01:11:56.003Z,5.45
2022-10-07T01:15:03.856Z,5.80
2022-10-07T01:17:59.156Z,5.35
2022-10-07T01:20:55.670Z,5.57
2022-10-07T01:24:20.417Z,6.30
2022-10-07T01:27:27.107Z,5.38
2022-10-07T01:30:13.276Z,5.25
2022-10-07T01:33:06.559Z,5.45
2022-10-07T01:35:52.210Z,6.72
2022-10-07T01:38:42.600Z,5.10
2022-10-07T01:41:31.111Z,5.40
2022-10-07T01:44:16.888Z,6.43
2022-10-07T01:47:02.853Z,5.55
2022-10-07T01:49:48.423Z,5.05
2022-10-07T01:52:50.446Z,5.50
2022-10-07T01:56:02.397Z,4.93
2022-10-07T01:58:57.774Z,5.47
2022-10-07T02:02:04.029Z,6.35
2022-10-07T02:05:13.689Z,5.55
2022-10-07T02:08:11.486Z,5.50
2022-10-07T02:11:19.111Z,6.00
2022-10-07T02:14:16.347Z,6.75
2022-10-07T02:17:14.760Z,5.43
2022-10-07T02:20:02.719Z,5.35
2022-10-07T02:22:51.812Z,6.38
2022-10-07T02:25:42.514Z,6.70
2022-10-07T02:28:29.923Z,5.90
2022-10-07T02:31:17.763Z,6.35
2022-10-07T02:34:06.168Z,7.28
2022-10-07T02:37:02.983Z,6.38
2022-10-07T02:39:51.852Z,6.35
2022-10-07T02:42:58.580Z,6.35
2022-10-07T02:45:55.494Z,6.80
2022-10-07T02:48:56.459Z,7.03
2022-10-07T02:51:48.181Z,7.65
2022-10-07T02:54:51.156Z,7.38
2022-10-07T02:57:44.030Z,7.35
2022-10-07T03:00:32.239Z,7.45
2022-10-07T03:03:17.698Z,7.20
2022-10-07T03:06:30.369Z,6.75
2022-10-07T03:09:18.104Z,8.32
2022-10-07T03:12:04.028Z,7.20
2022-10-07T03:14:50.613Z,7.55
2022-10-07T03:17:40.278Z,6.55
2022-10-07T03:20:28.565Z,7.43
2022-10-07T03:23:13.916Z,7.75
2022-10-07T03:26:00.786Z,7.43
2022-10-07T03:28:47.494Z,7.68
2022-10-07T03:31:33.683Z,7.30
2022-10-07T03:34:20.228Z,7.30
2022-10-07T03:37:08.695Z,7.72
2022-10-07T03:39:53.985Z,6.93
2022-10-07T03:42:41.376Z,8.35
2022-10-07T03:45:26.940Z,7.80
2022-10-07T03:48:12.634Z,7.10
2022-10-07T03:50:58.380Z,7.40
2022-10-07T03:53:46.710Z,6.80
2022-10-07T03:56:38.047Z,7.72
2022-10-07T03:59:23.615Z,6.05
2022-10-07T04:02:09.284Z,6.95
2022-10-07T04:04:55.003Z,6.40
2022-10-07T04:07:47.003Z,8.05
2022-10-07T04:10:34.461Z,6.68
2022-10-07T04:13:19.663Z,6.60
2022-10-07T04:16:10.245Z,7.13
2022-10-07T04:18:56.714Z,7.50
2022-10-07T04:21:44.496Z,6.45
2022-10-07T04:24:30.036Z,5.78
2022-10-07T04:27:39.757Z,5.85
2022-10-07T04:30:24.390Z,6.15
2022-10-07T04:33:10.607Z,6.28
2022-10-07T04:35:56.067Z,5.40
2022-10-07T04:38:42.757Z,6.63
2022-10-07T04:41:29.400Z,6.22
2022-10-07T04:44:14.756Z,5.68
2022-10-07T04:47:12.627Z,5.80
2022-10-07T04:49:58.312Z,5.60
2022-10-07T04:52:43.931Z,6.20
2022-10-07T04:55:29.139Z,5.45
2022-10-07T04:58:16.412Z,6.03
2022-10-07T05:01:10.607Z,6.18
2022-10-07T05:03:59.541Z,5.57
2022-10-07T05:06:46.028Z,5.47
2022-10-07T05:09:31.628Z,5.60
2022-10-07T05:12:19.128Z,6.18
2022-10-07T05:15:08.160Z,5.72
2022-10-07T05:17:55.877Z,5.82
2022-10-07T05:20:44.572Z,5.05
2022-10-07T05:23:31.373Z,5.95
2022-10-07T05:26:19.349Z,5.43
2022-10-07T05:29:09.675Z,4.50
2022-10-07T05:32:04.799Z,4.80
2022-10-07T05:34:52.159Z,5.05
2022-10-07T05:37:37.496Z,5.43
2022-10-07T05:40:23.542Z,5.43
2022-10-07T05:43:10.933Z,5.50
2022-10-07T05:46:05.496Z,5.93
2022-10-07T05:48:54.090Z,5.90
2022-10-07T05:51:46.419Z,5.30
2022-10-07T05:54:33.153Z,5.70
2022-10-07T05:57:18.527Z,5.55
2022-10-07T06:00:10.467Z,5.80
2022-10-07T06:03:06.957Z,5.45
2022-10-07T06:05:54.168Z,5.78
2022-10-07T06:08:41.259Z,5.03
2022-10-07T06:11:45.591Z,5.80
2022-10-07T06:14:30.911Z,5.70
2022-10-07T06:17:17.010Z,5.75
2022-10-07T06:20:04.630Z,6.55
2022-10-07T06:22:52.182Z,5.75
2022-10-07T06:25:38.159Z,5.95
2022-10-07T06:28:24.696Z,6.15
2022-10-07T06:31:15.909Z,6.10
2022-10-07T06:34:02.575Z,6.32
2022-10-07T06:36:48.003Z,6.28
2022-10-07T06:39:34.686Z,5.68
2022-10-07T06:42:20.754Z,6.75
2022-10-07T06:45:37.987Z,5.75
2022-10-07T06:48:24.557Z,5.25
2022-10-07T06:51:14.447Z,6.65
2022-10-07T06:54:00.700Z,6.35
2022-10-07T06:56:46.354Z,5.63
2022-10-07T06:59:32.079Z,5.22
2022-10-07T07:02:26.091Z,6.22
2022-10-07T07:05:14.352Z,5.35
2022-10-07T07:08:03.444Z,6.18
2022-10-07T07:10:49.735Z,5.57
2022-10-07T07:13:36.169Z,5.97
2022-10-07T07:16:22.467Z,4.82
2022-10-07T07:19:10.692Z,5.50
2022-10-07T07:22:00.311Z,4.40
2022-10-07T07:24:46.195Z,5.88
2022-10-07T07:27:32.686Z,5.30
2022-10-07T07:30:22.307Z,4.97
2022-10-07T07:33:10.443Z,6.18
2022-10-07T07:35:57.515Z,5.40
2022-10-07T07:38:57.824Z,6.10
2022-10-07T07:41:49.304Z,5.38
2022-10-07T07:44:37.647Z,5.05
2022-10-07T07:47:28.377Z,5.32
2022-10-07T07:50:14.368Z,5.55
2022-10-07T07:53:02.210Z,4.53
2022-10-07T07:55:55.945Z,5.85
2022-10-07T07:58:42.816Z,6.07
2022-10-07T08:01:32.025Z,5.40
2022-10-07T08:04:18.906Z,5.65
2022-10-07T08:07:04.163Z,6.28
2022-10-07T08:09:51.188Z,5.47
2022-10-07T08:12:37.091Z,6.05
2022-10-07T08:15:22.652Z,5.00
2022-10-07T08:18:10.711Z,5.78
2022-10-07T08:21:01.552Z,4.93
2022-10-07T08:23:59.770Z,6.00
2022-10-07T08:26:48.666Z,5.60
2022-10-07T08:29:35.174Z,5.15
2022-10-07T08:32:20.481Z,6.25
2022-10-07T08:35:06.286Z,4.68
2022-10-07T08:37:51.890Z,4.60
2022-10-07T08:40:37.573Z,4.18
2022-10-07T08:43:27.726Z,5.72
2022-10-07T08:46:16.879Z,5.15
2022-10-07T08:49:09.428Z,4.38
2022-10-07T08:52:03.951Z,5.00
2022-10-07T08:54:49.649Z,4.80
2022-10-07T08:58:05.368Z,5.75
2022-10-07T09:01:09.348Z,6.13
2022-10-07T09:04:19.216Z,5.53
2022-10-07T09:07:09.472Z,5.55
2022-10-07T09:10:23.554Z,5.70
2022-10-07T09:13:29.383Z,4.72
2022-10-07T09:16:32.002Z,5.70
2022-10-07T09:19:34.161Z,4.85
2022-10-07T09:22:31.472Z,5.15
2022-10-07T09:25:23.476Z,4.38
2022-10-07T09:28:14.952Z,5.50
2022-10-07T09:31:02.820Z,4.53
2022-10-07T09:33:50.666Z,5.00
2022-10-07T09:37:14.596Z,4.55
2022-10-07T09:40:21.420Z,4.97
2022-10-07T09:43:14.246Z,4.95
2022-10-07T09:46:00.812Z,5.10
2022-10-07T09:48:52.879Z,4.55
2022-10-07T09:51:39.596Z,4.70
2022-10-07T09:54:25.869Z,4.13
2022-10-07T09:57:23.515Z,4.93
2022-10-07T10:00:12.237Z,4.20
2022-10-07T10:03:07.656Z,3.78
2022-10-07T10:05:58.627Z,3.63
2022-10-07T10:08:45.311Z,4.13
2022-10-07T10:11:33.647Z,4.10
2022-10-07T10:14:42.547Z,3.63
2022-10-07T10:17:34.480Z,3.42
2022-10-07T10:20:39.691Z,4.15
2022-10-07T10:23:29.291Z,3.97
2022-10-07T10:26:31.074Z,5.03
2022-10-07T10:29:53.033Z,3.92
2022-10-07T10:32:57.247Z,3.72
2022-10-07T10:36:05.326Z,4.03
2022-10-07T10:39:20.355Z,4.20
2022-10-07T10:42:11.954Z,4.25
2022-10-07T10:45:19.298Z,5.57
2022-10-07T10:48:22.960Z,4.05
2022-10-07T10:51:46.342Z,4.10
2022-10-07T10:55:12.840Z,3.67
2022-10-07T10:58:26.384Z,4.03
2022-10-07T11:01:28.984Z,3.78
2022-10-07T11:04:33.107Z,3.80
2022-10-07T11:07:24.953Z,3.70
2022-10-07T11:10:30.487Z,3.85
2022-10-07T11:13:43.952Z,4.28
2022-10-07T11:16:36.769Z,3.85
2022-10-07T11:19:40.430Z,3.67
2022-10-07T11:22:34.324Z,3.47
2022-10-07T11:25:43.347Z,3.45
2022-10-07T11:28:32.656Z,3.90
2022-10-07T11:31:35.681Z,3.53
2022-10-07T11:34:37.560Z,3.55
2022-10-07T11:37:45.189Z,3.60
2022-10-07T11:40:34.527Z,4.18
2022-10-07T11:43:33.239Z,3.53
2022-10-07T11:46:27.375Z,3.30
2022-10-07T11:49:29.362Z,3.30
2022-10-07T11:52:34.759Z,3.13
2022-10-07T11:55:28.507Z,3.60
2022-10-07T11:58:36.279Z,3.92
2022-10-07T12:01:30.583Z,3.30
2022-10-07T12:04:39.496Z,3.87
2022-10-07T12:07:38.789Z,3.97
2022-10-07T12:10:30.116Z,3.58
2022-10-07T12:13:15.346Z,4.25
2022-10-07T12:16:24.017Z,3.75
2022-10-07T12:19:12.684Z,3.45
2022-10-07T12:22:02.728Z,3.60
2022-10-07T12:25:29.286Z,3.50
2022-10-07T12:28:24.290Z,3.72
2022-10-07T12:31:15.988Z,3.63
2022-10-07T12:34:29.136Z,4.15
2022-10-07T12:37:45.355Z,3.47
2022-10-07T12:40:35.286Z,3.67
2022-10-07T12:43:45.104Z,3.38
2022-10-07T12:46:49.348Z,3.38
2022-10-07T12:49:48.756Z,2.90
2022-10-07T12:52:52.986Z,3.40
2022-10-07T12:55:44.039Z,3.20
2022-10-07T12:59:19.141Z,3.55
2022-10-07T13:02:41.750Z,3.83
2022-10-07T13:05:46.248Z,3.47
2022-10-07T13:09:08.234Z,4.20
2022-10-07T13:12:08.995Z,3.72
2022-10-07T13:15:09.184Z,2.95
2022-10-07T13:17:58.700Z,4.22
2022-10-07T13:20:58.656Z,3.33
2022-10-07T13:23:54.259Z,3.38
2022-10-07T13:26:46.880Z,3.97
2022-10-07T13:29:33.361Z,3.83
2022-10-07T13:32:25.247Z,4.00
2022-10-07T13:35:40.446Z,2.83
2022-10-07T13:38:28.210Z,3.72
2022-10-07T13:41:30.208Z,4.00
2022-10-07T13:44:19.288Z,3.33
2022-10-07T13:47:07.193Z,3.22
2022-10-07T13:49:54.047Z,3.28
2022-10-07T13:52:46.952Z,3.45
2022-10-07T13:55:34.796Z,3.33
2022-10-07T13:58:20.471Z,4.22
2022-10-07T14:01:06.528Z,4.35
2022-10-07T14:04:20.481Z,3.92
2022-10-07T14:07:21.452Z,3.65
2022-10-07T14:10:09.915Z,3.92
2022-10-07T14:13:03.083Z,3.15
2022-10-07T14:15:51.771Z,3.42
2022-10-07T14:18:43.795Z,2.92
2022-10-07T14:21:29.048Z,2.97
2022-10-07T14:24:20.336Z,3.33
2022-10-07T14:27:05.660Z,2.38
2022-10-07T14:29:51.298Z,3.35
2022-10-07T14:32:54.818Z,2.72
2022-10-07T14:35:40.703Z,3.85
2022-10-07T14:38:27.771Z,3.42
2022-10-07T14:41:15.676Z,3.28
2022-10-07T14:44:03.081Z,3.50
2022-10-07T14:46:48.596Z,3.55
2022-10-07T14:49:33.764Z,3.25
2022-10-07T14:52:28.353Z,2.83
2022-10-07T14:55:21.585Z,3.10
2022-10-07T14:58:10.276Z,3.63
2022-10-07T15:00:55.490Z,2.83
2022-10-07T15:03:41.161Z,3.40
2022-10-07T15:06:28.505Z,2.83
2022-10-07T15:09:15.347Z,3.30
2022-10-07T15:12:01.397Z,3.90
2022-10-07T15:14:46.739Z,3.17
2022-10-07T15:17:57.309Z,2.83
2022-10-07T15:20:42.838Z,3.25
2022-10-07T15:23:30.121Z,2.78
2022-10-07T15:26:15.640Z,3.30
2022-10-07T15:29:01.451Z,2.63
2022-10-07T15:31:49.356Z,3.20
2022-10-07T15:34:34.828Z,3.80
2022-10-07T15:37:21.772Z,2.75
2022-10-07T15:40:07.693Z,3.42
2022-10-07T15:42:52.791Z,3.35
2022-10-07T15:45:44.951Z,3.05
2022-10-07T15:48:30.300Z,3.47
2022-10-07T15:51:15.778Z,3.80
2022-10-07T15:54:01.488Z,3.38
2022-10-07T15:56:50.247Z,3.80
2022-10-07T15:59:35.730Z,4.03
2022-10-07T16:02:24.529Z,3.58
2022-10-07T16:05:12.424Z,3.50
2022-10-07T16:07:57.947Z,3.92
2022-10-07T16:10:43.558Z,3.45
2022-10-07T16:13:29.983Z,4.95
2022-10-07T16:16:22.579Z,4.07
2022-10-07T16:19:08.880Z,4.32
2022-10-07T16:21:54.570Z,4.47
2022-10-07T16:24:43.021Z,4.40
2022-10-07T16:27:48.599Z,5.45
2022-10-07T16:33:28.716Z,4.53
2022-10-07T16:36:14.407Z,4.32
2022-10-07T16:39:03.316Z,4.75
2022-10-07T16:41:51.212Z,4.47
2022-10-07T16:44:36.781Z,4.32
2022-10-07T16:47:22.319Z,4.45
2022-10-07T16:50:11.237Z,4.35
2022-10-07T16:52:56.761Z,4.32
2022-10-07T16:55:42.294Z,3.47
2022-10-07T16:58:27.602Z,4.13
2022-10-07T17:01:15.588Z,3.90
2022-10-07T17:04:01.723Z,3.38
2022-10-07T17:06:48.735Z,4.32
2022-10-07T17:09:37.034Z,3.03
2022-10-07T17:12:24.501Z,2.88
2022-10-07T17:15:10.159Z,3.17
2022-10-07T17:17:55.742Z,4.03
2022-10-07T17:20:48.107Z,3.83
2022-10-07T17:23:35.271Z,3.13
2022-10-07T17:26:20.872Z,3.75
2022-10-07T17:29:09.863Z,3.60
2022-10-07T17:31:56.309Z,4.15
2022-10-07T17:34:45.323Z,3.70
2022-10-07T17:37:30.592Z,3.58
2022-10-07T17:40:16.349Z,4.03
2022-10-07T17:43:04.483Z,3.53
2022-10-07T17:45:50.113Z,3.13
2022-10-07T17:48:39.123Z,3.33
2022-10-07T17:51:28.932Z,3.67
2022-10-07T17:54:14.697Z,3.85
2022-10-07T17:57:04.328Z,3.72
2022-10-07T17:59:52.930Z,4.35
2022-10-07T18:02:43.377Z,2.97
2022-10-07T18:05:31.461Z,2.90
2022-10-07T18:08:17.126Z,3.33
2022-10-07T18:11:03.343Z,2.90
2022-10-07T18:14:07.055Z,3.40
2022-10-07T18:16:52.531Z,4.25
2022-10-07T18:19:39.560Z,2.55
2022-10-07T18:22:25.200Z,3.33
2022-10-07T18:25:11.864Z,3.33
2022-10-07T18:27:59.246Z,3.28
2022-10-07T18:30:44.798Z,4.45
2022-10-07T18:33:35.635Z,4.07
2022-10-07T18:36:21.032Z,3.28
2022-10-07T18:39:18.885Z,3.58
2022-10-07T18:42:04.616Z,3.30
2022-10-07T18:44:50.566Z,4.72
2022-10-07T18:47:38.323Z,4.13
2022-10-07T18:50:24.142Z,4.07
2022-10-07T18:53:09.820Z,2.58
2022-10-07T18:55:59.292Z,3.03
2022-10-07T18:58:48.574Z,3.47
2022-10-07T19:01:36.400Z,3.08
2022-10-07T19:04:22.458Z,3.60
2022-10-07T19:07:07.758Z,3.50
2022-10-07T19:09:53.292Z,3.17
2022-10-07T19:13:03.467Z,3.22
2022-10-07T19:15:48.920Z,3.95
2022-10-07T19:18:34.700Z,4.38
2022-10-07T19:21:20.995Z,4.25
2022-10-07T19:24:07.245Z,3.28
2022-10-07T19:26:53.955Z,3.40
2022-10-07T19:29:42.719Z,3.15
2022-10-07T19:32:28.072Z,3.45
2022-10-07T19:35:13.917Z,3.53
2022-10-07T19:38:00.055Z,3.25
2022-10-07T19:40:45.930Z,3.40
2022-10-07T19:43:34.555Z,3.40
2022-10-07T19:46:22.307Z,3.53
2022-10-07T19:49:09.233Z,3.55
2022-10-07T19:51:54.641Z,2.75
2022-10-07T19:54:45.383Z,3.05
2022-10-07T19:57:31.599Z,3.50
2022-10-07T20:00:17.049Z,3.25
2022-10-07T20:03:02.466Z,4.35
2022-10-07T20:05:48.218Z,3.20
2022-10-07T20:08:43.052Z,3.90
2022-10-07T20:11:28.397Z,3.28
2022-10-07T20:14:15.124Z,3.83
2022-10-07T20:17:01.115Z,3.08
2022-10-07T20:19:46.480Z,3.22
2022-10-07T20:22:34.315Z,3.35
2022-10-07T20:25:19.905Z,2.95
2022-10-07T20:28:05.666Z,2.47
2022-10-07T20:30:52.124Z,3.88
2022-10-07T20:33:46.478Z,2.35
2022-10-07T20:36:34.957Z,2.47
2022-10-07T20:39:39.685Z,2.47
2022-10-07T20:42:27.285Z,3.20
2022-10-07T20:45:12.519Z,2.92
2022-10-07T20:47:59.555Z,3.25
2022-10-07T20:50:44.734Z,3.40
2022-10-07T20:53:30.436Z,3.05
2022-10-07T20:56:16.689Z,3.55
2022-10-07T20:59:02.055Z,2.63
2022-10-07T21:01:48.335Z,3.70
2022-10-07T21:04:33.961Z,2.65
2022-10-07T21:07:19.645Z,2.92
2022-10-07T21:10:05.316Z,3.03
2022-10-07T21:12:50.502Z,3.38
2022-10-07T21:15:37.470Z,2.95
2022-10-07T21:18:26.468Z,3.47
2022-10-07T21:21:11.874Z,2.88
2022-10-07T21:24:03.132Z,2.67
2022-10-07T21:26:48.293Z,2.60
2022-10-07T21:29:40.207Z,3.55
2022-10-07T21:32:28.107Z,2.90
2022-10-07T21:35:13.336Z,2.50
2022-10-07T21:37:59.408Z,2.83
2022-10-07T21:40:45.028Z,3.00
2022-10-07T21:43:36.576Z,2.70
2022-10-07T21:46:24.112Z,3.20
2022-10-07T21:49:09.822Z,3.15
2022-10-07T21:51:55.098Z,2.70
2022-10-07T21:54:41.121Z,2.90
2022-10-07T21:57:26.379Z,3.40
2022-10-07T22:00:12.598Z,2.15
2022-10-07T22:02:58.607Z,3.42
2022-10-07T22:05:43.644Z,2.75
2022-10-07T22:08:35.551Z,2.97
2022-10-07T22:11:22.140Z,2.90
2022-10-07T22:14:12.208Z,3.03
2022-10-07T22:16:58.218Z,3.53
2022-10-07T22:19:43.703Z,2.47
2022-10-07T22:22:29.022Z,3.67
2022-10-07T22:25:14.663Z,3.30
2022-10-07T22:28:00.097Z,3.60
2022-10-07T22:30:45.443Z,2.90
2022-10-07T22:33:30.889Z,2.88
2022-10-07T22:36:16.529Z,3.08
2022-10-07T22:39:04.843Z,2.78
2022-10-07T22:41:51.040Z,3.50
2022-10-07T22:44:36.362Z,3.58
2022-10-07T22:47:21.847Z,3.28
2022-10-07T22:50:08.148Z,3.33
2022-10-07T22:52:56.148Z,3.58
2022-10-07T22:58:52.991Z,2.30
2022-10-07T23:01:38.704Z,1.85
2022-10-07T23:04:24.104Z,2.00
2022-10-07T23:07:10.401Z,1.52
2022-10-07T23:09:55.789Z,1.70
2022-10-07T23:12:41.445Z,1.88
2022-10-07T23:15:26.695Z,1.65
2022-10-07T23:18:12.191Z,2.28
2022-10-07T23:21:06.106Z,2.22
2022-10-07T23:23:53.607Z,2.72
2022-10-07T23:26:43.736Z,1.90
2022-10-07T23:29:29.991Z,1.92
2022-10-07T23:32:15.191Z,1.95
2022-10-07T23:35:00.575Z,2.20
2022-10-07T23:37:45.984Z,2.55
2022-10-07T23:40:31.851Z,2.40
2022-10-07T23:43:20.915Z,2.65
2022-10-07T23:46:09.694Z,2.60
2022-10-07T23:48:56.111Z,2.30
2022-10-07T23:51:41.752Z,2.63
2022-10-07T23:54:30.340Z,2.90
2022-10-07T23:57:15.544Z,2.25
